Time;durP1;ratioP1;P1;durP2;ratioP2;P2;SDS_P1;SDS_P2;PMS_P1;PMS_P2;Temp;Humidity;BMP_temperature;BMP_pressure;BME280_temperature;BME280_humidity;BME280_pressure;Samples;Min_cycle;Max_cycle;Signal;HPM_P1;HPM_P2
2022/11/24 00:02:22;;;;;;;20.40;3.67;;;7.90;99.90;;;;;;5054962;28;20673;-53
2022/11/24 00:04:49;;;;;;;12.80;2.70;;;7.90;99.90;;;;;;5055190;28;20595;-51
2022/11/24 00:07:15;;;;;;;15.37;2.83;;;7.90;99.90;;;;;;5054440;28;20703;-51
2022/11/24 00:09:42;;;;;;;12.67;2.87;;;7.80;99.90;;;;;;5054741;28;20211;-53
2022/11/24 00:12:10;;;;;;;13.57;3.37;;;7.80;99.90;;;;;;5054582;28;20260;-53
2022/11/24 00:14:37;;;;;;;14.23;3.27;;;7.80;99.90;;;;;;5054611;28;20283;-49
2022/11/24 00:17:03;;;;;;;18.93;3.47;;;7.80;99.90;;;;;;5054558;28;20209;-51
2022/11/24 00:19:30;;;;;;;9.43;2.50;;;7.70;99.90;;;;;;5054762;28;20205;-50
2022/11/24 00:21:57;;;;;;;11.07;2.83;;;7.80;99.90;;;;;;5054202;28;20262;-48
2022/11/24 00:24:23;;;;;;;12.90;2.50;;;7.80;99.90;;;;;;5054633;28;20225;-52
2022/11/24 00:26:50;;;;;;;10.37;2.70;;;7.70;99.90;;;;;;5053863;28;20251;-48
2022/11/24 00:29:18;;;;;;;10.97;2.73;;;7.70;99.90;;;;;;5054424;28;20271;-53
2022/11/24 00:31:44;;;;;;;15.00;2.93;;;7.70;99.90;;;;;;5054304;28;20202;-50
2022/11/24 00:34:13;;;;;;;14.03;2.63;;;7.60;99.90;;;;;;5054287;28;20226;-50
2022/11/24 00:36:40;;;;;;;17.77;3.63;;;7.60;99.90;;;;;;5053982;28;20567;-51
2022/11/24 00:39:10;;;;;;;14.27;2.83;;;7.70;99.90;;;;;;5054058;28;20218;-51
2022/11/24 00:41:37;;;;;;;13.10;2.67;;;7.60;99.90;;;;;;5054201;28;20201;-50
2022/11/24 00:44:05;;;;;;;14.43;2.73;;;7.60;99.90;;;;;;5053737;28;20226;-48
2022/11/24 00:46:33;;;;;;;12.23;2.70;;;7.60;99.90;;;;;;5053176;28;20673;-52
2022/11/24 00:49:00;;;;;;;12.93;2.83;;;7.60;99.90;;;;;;5053855;28;20210;-54
2022/11/24 00:51:29;;;;;;;14.17;2.73;;;7.60;99.90;;;;;;5053923;28;20229;-51
2022/11/24 00:53:56;;;;;;;14.80;2.73;;;7.60;99.90;;;;;;5053655;28;20222;-49
2022/11/24 00:56:23;;;;;;;15.00;2.83;;;7.50;99.90;;;;;;5053700;28;20221;-48
2022/11/24 00:58:49;;;;;;;15.13;2.70;;;7.50;99.90;;;;;;5053586;28;20243;-53
2022/11/24 01:01:18;;;;;;;15.37;2.97;;;7.50;99.90;;;;;;5053744;28;20209;-51
2022/11/24 01:03:46;;;;;;;18.70;2.87;;;7.40;99.90;;;;;;5053666;28;20611;-50
2022/11/24 01:06:15;;;;;;;12.30;2.70;;;7.40;99.90;;;;;;5053673;28;20235;-51
2022/11/24 01:08:42;;;;;;;13.33;3.07;;;7.40;99.90;;;;;;5053660;28;20210;-48
2022/11/24 01:11:11;;;;;;;12.37;2.60;;;7.40;99.90;;;;;;5053719;28;20639;-48
2022/11/24 01:13:38;;;;;;;16.90;2.67;;;7.40;99.90;;;;;;5053251;28;20241;-53
2022/11/24 01:16:05;;;;;;;13.87;2.70;;;7.40;99.90;;;;;;5053072;28;20236;-50
2022/11/24 01:18:32;;;;;;;13.50;2.77;;;7.40;99.90;;;;;;5053215;28;20688;-53
2022/11/24 01:21:03;;;;;;;10.73;2.13;;;7.50;99.90;;;;;;5053169;28;20578;-51
2022/11/24 01:23:30;;;;;;;14.63;3.27;;;7.50;99.90;;;;;;5053218;28;20643;-48
2022/11/24 01:25:57;;;;;;;6.13;2.23;;;7.50;99.90;;;;;;5053188;28;20198;-53
2022/11/24 01:28:23;;;;;;;17.10;2.90;;;7.60;99.90;;;;;;5053292;28;20761;-47
2022/11/24 01:30:57;;;;;;;12.17;2.57;;;7.50;99.90;;;;;;5053217;28;20698;-51
2022/11/24 01:33:23;;;;;;;16.13;2.57;;;7.50;99.90;;;;;;5052890;28;20715;-47
2022/11/24 01:35:50;;;;;;;12.43;2.80;;;7.50;99.90;;;;;;5053109;28;20586;-54
2022/11/24 01:38:18;;;;;;;16.10;3.13;;;7.50;99.90;;;;;;5052754;28;20251;-54
2022/11/24 01:40:45;;;;;;;7.60;2.40;;;7.50;99.90;;;;;;5053093;28;20205;-53
2022/11/24 01:43:17;;;;;;;16.77;3.53;;;7.50;99.90;;;;;;5052683;28;20209;-52
2022/11/24 01:45:46;;;;;;;20.80;3.70;;;7.50;99.90;;;;;;5052929;28;20301;-52
2022/11/24 01:48:19;;;;;;;9.80;2.50;;;7.50;99.90;;;;;;5052614;28;20232;-52
2022/11/24 01:50:47;;;;;;;10.27;2.90;;;7.50;99.90;;;;;;5052742;28;20668;-51
2022/11/24 01:53:15;;;;;;;14.43;2.73;;;7.50;99.90;;;;;;5052859;28;20222;-53
2022/11/24 01:55:43;;;;;;;10.17;2.77;;;7.40;99.90;;;;;;5052561;28;20268;-53
2022/11/24 01:58:13;;;;;;;9.00;2.60;;;7.50;99.90;;;;;;5051485;28;20259;-49
2022/11/24 02:00:44;;;;;;;8.50;2.10;;;7.50;99.90;;;;;;5052315;28;20210;-51
2022/11/24 02:03:15;;;;;;;20.43;3.27;;;7.50;99.90;;;;;;5052774;28;20255;-51
2022/11/24 02:05:45;;;;;;;13.23;2.10;;;7.50;99.90;;;;;;5052264;28;20201;-53
2022/11/24 02:08:17;;;;;;;14.63;2.93;;;7.50;99.90;;;;;;5052459;28;20641;-49
2022/11/24 02:10:46;;;;;;;8.73;2.30;;;7.60;99.90;;;;;;5052569;28;20232;-50
2022/11/24 02:13:14;;;;;;;10.00;2.57;;;7.60;99.90;;;;;;5052435;28;20213;-49
2022/11/24 02:15:41;;;;;;;9.70;2.30;;;7.60;99.90;;;;;;5052259;28;20648;-52
2022/11/24 02:18:07;;;;;;;15.60;3.13;;;7.70;99.90;;;;;;5052253;28;20643;-55
2022/11/24 02:20:34;;;;;;;10.33;2.17;;;7.70;99.90;;;;;;5052426;28;20206;-51
2022/11/24 02:23:08;;;;;;;10.30;2.40;;;7.70;99.90;;;;;;5052648;28;20544;-52
2022/11/24 02:25:40;;;;;;;10.97;2.50;;;7.80;99.90;;;;;;5052608;28;20217;-51
2022/11/24 02:28:15;;;;;;;13.47;3.20;;;7.70;99.90;;;;;;5052148;28;20205;-50
2022/11/24 02:30:41;;;;;;;12.87;2.60;;;7.80;99.90;;;;;;5052268;28;20301;-52
2022/11/24 02:33:09;;;;;;;13.73;2.57;;;7.80;99.90;;;;;;5052569;28;20210;-46
2022/11/24 02:35:36;;;;;;;12.93;2.63;;;7.80;99.90;;;;;;5052094;28;20221;-53
2022/11/24 02:38:03;;;;;;;8.67;2.43;;;7.80;99.90;;;;;;5051974;28;20213;-48
2022/11/24 02:40:30;;;;;;;11.07;2.40;;;7.80;99.90;;;;;;5052087;28;20213;-48
2022/11/24 02:43:02;;;;;;;13.50;2.73;;;7.80;99.90;;;;;;5052160;28;20205;-48
2022/11/24 02:45:31;;;;;;;8.60;2.50;;;7.80;99.90;;;;;;5051904;28;20222;-46
2022/11/24 02:47:57;;;;;;;11.30;2.30;;;7.80;99.90;;;;;;5051627;28;20763;-46
2022/11/24 02:50:24;;;;;;;16.07;2.57;;;7.70;99.90;;;;;;5052036;28;20205;-52
2022/11/24 02:52:51;;;;;;;12.30;2.63;;;7.80;99.90;;;;;;5052007;28;20210;-46
2022/11/24 02:55:19;;;;;;;6.70;1.67;;;7.80;99.90;;;;;;5051765;28;20287;-53
2022/11/24 02:57:45;;;;;;;16.10;3.17;;;7.80;99.90;;;;;;5051590;28;20197;-47
2022/11/24 03:00:13;;;;;;;15.23;2.97;;;7.90;99.90;;;;;;5051781;28;20213;-53
2022/11/24 03:02:41;;;;;;;11.87;2.50;;;7.80;99.90;;;;;;5051715;28;20209;-47
2022/11/24 03:05:10;;;;;;;11.87;2.20;;;7.90;99.90;;;;;;5051683;28;20218;-48
2022/11/24 03:07:37;;;;;;;14.53;2.60;;;7.80;99.90;;;;;;5051663;28;20262;-46
2022/11/24 03:10:04;;;;;;;18.17;2.80;;;7.80;99.90;;;;;;5054612;28;20213;-50
2022/11/24 03:12:31;;;;;;;16.40;3.80;;;7.90;99.90;;;;;;5055677;28;20254;-46
2022/11/24 03:14:58;;;;;;;17.30;2.77;;;7.80;99.90;;;;;;5055919;28;20225;-49
2022/11/24 03:17:24;;;;;;;22.47;3.67;;;7.80;99.90;;;;;;5055474;28;20205;-52
2022/11/24 03:19:52;;;;;;;13.63;2.80;;;7.80;99.90;;;;;;5055595;28;20240;-49
2022/11/24 03:22:19;;;;;;;8.33;2.17;;;7.80;99.90;;;;;;5055672;28;20283;-53
2022/11/24 03:24:46;;;;;;;16.53;2.93;;;7.80;99.90;;;;;;5055603;28;20621;-46
2022/11/24 03:27:13;;;;;;;10.33;2.03;;;7.80;99.90;;;;;;5055163;28;20193;-51
2022/11/24 03:29:40;;;;;;;14.60;2.83;;;7.90;99.90;;;;;;5055500;28;20299;-51
2022/11/24 03:32:06;;;;;;;17.20;2.63;;;7.80;99.90;;;;;;5055342;28;20572;-46
2022/11/24 03:34:34;;;;;;;10.97;2.90;;;7.90;99.90;;;;;;5055184;28;20645;-54
2022/11/24 03:37:02;;;;;;;10.93;3.07;;;7.90;99.90;;;;;;5054929;28;20648;-53
2022/11/24 03:39:28;;;;;;;14.90;2.80;;;8.00;99.90;;;;;;5055473;28;20389;-51
2022/11/24 03:41:55;;;;;;;11.87;2.20;;;8.00;99.90;;;;;;5055116;28;20672;-48
2022/11/24 03:44:22;;;;;;;10.77;2.63;;;8.00;99.90;;;;;;5055127;28;20230;-50
2022/11/24 03:46:49;;;;;;;11.87;2.73;;;8.00;99.90;;;;;;5054802;28;20206;-51
2022/11/24 03:49:16;;;;;;;11.50;2.23;;;8.00;99.90;;;;;;5055278;28;20297;-46
2022/11/24 03:51:43;;;;;;;12.63;2.43;;;8.00;99.90;;;;;;5055135;28;20209;-46
2022/11/24 03:54:11;;;;;;;12.30;2.20;;;7.90;99.90;;;;;;5054911;28;20296;-51
2022/11/24 03:56:37;;;;;;;11.57;2.70;;;7.90;99.90;;;;;;5054438;28;20217;-51
2022/11/24 03:59:04;;;;;;;13.60;2.73;;;7.90;99.90;;;;;;5054926;28;20213;-47
2022/11/24 04:01:31;;;;;;;14.37;2.47;;;7.90;99.90;;;;;;5054644;28;20213;-49
2022/11/24 04:03:57;;;;;;;12.67;2.43;;;7.80;99.90;;;;;;5054992;28;20230;-50
2022/11/24 04:06:24;;;;;;;14.00;2.90;;;7.80;99.90;;;;;;5054606;28;20209;-52
2022/11/24 04:08:51;;;;;;;11.50;2.80;;;7.80;99.90;;;;;;5054913;28;20205;-47
2022/11/24 04:13:59;;;;;;;11.37;2.17;;;7.80;99.90;;;;;;5054286;28;20252;-52
2022/11/24 04:16:26;;;;;;;15.03;2.90;;;7.80;99.90;;;;;;5054499;28;20229;-54
2022/11/24 04:18:53;;;;;;;14.47;3.17;;;7.80;99.90;;;;;;5054689;28;20220;-49
2022/11/24 04:21:20;;;;;;;10.80;2.13;;;7.90;99.90;;;;;;5053653;28;20283;-50
2022/11/24 04:23:46;;;;;;;15.13;3.23;;;7.90;99.90;;;;;;5054195;28;20279;-52
2022/11/24 04:26:13;;;;;;;15.80;3.00;;;8.00;99.90;;;;;;5054151;28;20197;-51
2022/11/24 04:28:41;;;;;;;11.87;2.47;;;8.00;99.90;;;;;;5054125;28;20216;-54
2022/11/24 04:31:08;;;;;;;16.53;2.77;;;8.00;99.90;;;;;;5054457;28;20239;-55
2022/11/24 04:33:35;;;;;;;9.37;2.23;;;8.00;99.90;;;;;;5054200;28;20222;-48
2022/11/24 04:36:01;;;;;;;18.83;3.13;;;8.00;99.90;;;;;;5054007;28;20217;-53
2022/11/24 04:38:28;;;;;;;14.00;3.63;;;8.00;99.90;;;;;;5053635;28;20209;-48
2022/11/24 04:40:54;;;;;;;14.57;2.80;;;8.00;99.90;;;;;;5054308;28;20248;-52
2022/11/24 04:43:21;;;;;;;18.70;3.40;;;8.10;99.90;;;;;;5054210;28;20287;-52
2022/11/24 04:45:49;;;;;;;16.93;2.80;;;8.10;99.90;;;;;;5054254;28;20296;-53
2022/11/24 04:48:16;;;;;;;11.70;2.93;;;8.10;99.90;;;;;;5053718;28;20218;-53
2022/11/24 04:50:42;;;;;;;15.23;2.80;;;8.20;99.90;;;;;;5054155;28;20210;-54
2022/11/24 04:53:10;;;;;;;16.73;3.77;;;8.20;99.90;;;;;;5054110;28;20212;-53
2022/11/24 04:55:38;;;;;;;13.17;2.90;;;8.20;99.90;;;;;;5053815;28;20221;-54
2022/11/24 04:58:07;;;;;;;19.57;3.50;;;8.20;99.90;;;;;;5053692;28;20201;-53
2022/11/24 05:00:33;;;;;;;15.57;3.27;;;8.20;99.90;;;;;;5053827;28;20203;-49
2022/11/24 05:03:01;;;;;;;16.17;2.40;;;8.30;99.90;;;;;;5053630;28;20684;-53
2022/11/24 05:05:28;;;;;;;19.43;3.87;;;8.30;99.90;;;;;;5053643;28;20312;-54
2022/11/24 05:07:55;;;;;;;13.97;2.87;;;8.30;99.90;;;;;;5053193;28;20205;-54
2022/11/24 05:10:36;;;;;;;14.27;2.77;;;8.30;99.90;;;;;;5053320;28;20207;-52
2022/11/24 05:13:04;;;;;;;13.13;2.87;;;8.30;99.90;;;;;;5053449;28;20730;-56
2022/11/24 05:15:31;;;;;;;18.03;3.70;;;8.30;99.90;;;;;;5053773;28;20230;-53
2022/11/24 05:17:58;;;;;;;9.70;2.33;;;8.30;99.90;;;;;;5053129;28;20214;-50
2022/11/24 05:20:26;;;;;;;16.97;3.13;;;8.30;99.90;;;;;;5053433;28;20211;-54
2022/11/24 05:22:53;;;;;;;20.47;3.27;;;8.30;99.90;;;;;;5053817;28;20205;-50
2022/11/24 05:25:19;;;;;;;13.47;2.97;;;8.40;99.90;;;;;;5053322;28;20222;-55
2022/11/24 05:27:46;;;;;;;20.43;3.70;;;8.40;99.90;;;;;;5053134;28;20207;-53
2022/11/24 05:30:13;;;;;;;18.97;3.37;;;8.40;99.90;;;;;;5053156;28;20218;-54
2022/11/24 05:32:40;;;;;;;16.73;3.87;;;8.40;99.90;;;;;;5053000;28;20681;-51
2022/11/24 05:35:08;;;;;;;14.03;3.20;;;8.40;99.90;;;;;;5053403;28;20632;-49
2022/11/24 05:37:36;;;;;;;11.57;2.93;;;8.40;99.90;;;;;;5052953;28;20279;-53
2022/11/24 05:40:04;;;;;;;14.27;3.73;;;8.40;99.90;;;;;;5053160;28;20226;-53
2022/11/24 05:42:42;;;;;;;18.83;3.13;;;8.40;99.90;;;;;;5053063;28;20209;-55
2022/11/24 05:45:12;;;;;;;18.07;3.30;;;8.50;99.90;;;;;;5052755;28;20221;-51
2022/11/24 05:47:39;;;;;;;14.80;3.27;;;8.50;99.90;;;;;;5050169;28;20211;-52
2022/11/24 05:50:07;;;;;;;17.93;2.17;;;8.50;99.90;;;;;;5051563;28;20254;-55
2022/11/24 05:52:35;;;;;;;11.10;3.10;;;8.50;99.90;;;;;;5052651;28;20224;-54
2022/11/24 05:55:02;;;;;;;19.73;3.60;;;8.50;99.90;;;;;;5052163;28;20218;-52
2022/11/24 05:57:29;;;;;;;10.50;2.70;;;8.50;99.90;;;;;;5052089;28;20315;-53
2022/11/24 05:59:55;;;;;;;18.87;3.20;;;8.50;99.90;;;;;;5051823;28;20251;-50
2022/11/24 06:02:22;;;;;;;15.77;2.87;;;8.40;99.90;;;;;;5052711;28;20211;-54
2022/11/24 06:04:49;;;;;;;14.97;2.53;;;8.40;99.90;;;;;;5052352;28;20272;-51
2022/11/24 06:07:16;;;;;;;18.93;3.17;;;8.40;99.90;;;;;;5051374;28;20602;-47
2022/11/24 06:09:44;;;;;;;16.80;3.33;;;8.50;99.90;;;;;;5052339;28;20215;-52
2022/11/24 06:12:12;;;;;;;19.00;3.30;;;8.40;99.90;;;;;;5051631;28;20214;-50
2022/11/24 06:14:39;;;;;;;12.97;2.87;;;8.50;99.90;;;;;;5051920;28;20225;-53
2022/11/24 06:17:06;;;;;;;17.43;3.57;;;8.50;99.90;;;;;;5051395;28;20223;-51
2022/11/24 06:19:33;;;;;;;19.47;2.93;;;8.40;99.90;;;;;;5052344;28;20633;-53
2022/11/24 06:22:00;;;;;;;11.90;2.30;;;8.50;99.90;;;;;;5051561;28;20219;-55
2022/11/24 06:24:26;;;;;;;15.40;3.00;;;8.40;99.90;;;;;;5052106;28;20233;-51
2022/11/24 06:26:54;;;;;;;13.87;3.37;;;8.50;99.90;;;;;;5051072;28;20198;-51
2022/11/24 06:29:21;;;;;;;15.57;2.93;;;8.50;99.90;;;;;;5051694;28;20198;-62
2022/11/24 06:31:48;;;;;;;16.07;3.30;;;8.50;99.90;;;;;;5051658;28;20263;-62
2022/11/24 06:34:14;;;;;;;18.03;3.60;;;8.50;99.90;;;;;;5051831;28;20232;-62
2022/11/24 06:36:41;;;;;;;14.33;3.53;;;8.50;99.90;;;;;;5051414;28;20704;-61
2022/11/24 06:39:08;;;;;;;13.20;3.50;;;8.50;99.90;;;;;;5051345;28;20553;-59
2022/11/24 06:41:35;;;;;;;17.60;3.20;;;8.40;99.90;;;;;;5051641;28;20261;-62
2022/11/24 06:44:04;;;;;;;13.10;2.77;;;8.40;99.90;;;;;;5050211;28;20222;-60
2022/11/24 06:46:31;;;;;;;21.43;3.73;;;8.40;99.90;;;;;;5051231;28;20661;-60
2022/11/24 06:48:59;;;;;;;12.80;3.10;;;8.40;99.90;;;;;;5051442;28;20198;-60
2022/11/24 06:51:26;;;;;;;14.50;2.80;;;8.30;99.90;;;;;;5051376;28;20201;-60
2022/11/24 06:53:53;;;;;;;12.83;3.13;;;8.20;99.90;;;;;;5051244;28;20282;-61
2022/11/24 06:56:20;;;;;;;21.43;3.47;;;8.30;99.90;;;;;;5051120;28;20229;-60
2022/11/24 06:58:49;;;;;;;15.13;3.70;;;8.20;99.90;;;;;;5051332;28;20214;-58
2022/11/24 07:01:17;;;;;;;9.73;3.30;;;8.20;99.90;;;;;;5051520;28;20702;-58
2022/11/24 07:03:44;;;;;;;13.37;2.90;;;8.20;99.90;;;;;;5051307;28;20267;-59
2022/11/24 07:06:11;;;;;;;12.40;2.60;;;8.20;99.90;;;;;;5050979;28;20208;-56
2022/11/24 07:08:37;;;;;;;16.50;3.07;;;8.20;99.90;;;;;;5051558;28;20206;-55
2022/11/24 07:11:05;;;;;;;13.40;3.30;;;8.20;99.90;;;;;;5050852;28;20565;-58
2022/11/24 07:13:33;;;;;;;10.63;2.50;;;8.20;99.90;;;;;;5051253;28;20233;-60
2022/11/24 07:15:59;;;;;;;14.70;2.57;;;8.10;99.90;;;;;;5050800;28;20210;-59
2022/11/24 07:18:27;;;;;;;7.43;2.57;;;8.10;99.90;;;;;;5051399;28;20680;-59
2022/11/24 07:20:54;;;;;;;15.27;2.87;;;8.10;99.90;;;;;;5050971;28;20205;-58
2022/11/24 07:23:20;;;;;;;11.17;2.43;;;8.10;99.90;;;;;;5051295;28;20205;-54
2022/11/24 07:25:47;;;;;;;10.37;3.63;;;8.10;99.90;;;;;;5050696;28;20214;-55
2022/11/24 07:28:14;;;;;;;6.53;2.20;;;8.00;99.90;;;;;;5051371;28;20251;-54
2022/11/24 07:30:40;;;;;;;13.53;3.03;;;8.00;99.90;;;;;;5051059;28;20209;-59
2022/11/24 07:33:07;;;;;;;11.87;2.33;;;8.10;99.90;;;;;;5051333;28;20209;-57
2022/11/24 07:35:35;;;;;;;10.33;2.23;;;8.10;99.90;;;;;;5050980;28;20225;-59
2022/11/24 07:38:02;;;;;;;13.13;2.90;;;8.20;99.90;;;;;;5050494;28;20237;-56
2022/11/24 07:40:28;;;;;;;12.20;2.80;;;8.20;99.90;;;;;;5051429;28;20259;-52
2022/11/24 07:42:55;;;;;;;8.73;2.00;;;8.20;99.90;;;;;;5050935;28;20206;-57
2022/11/24 07:45:22;;;;;;;5.87;2.00;;;8.20;99.90;;;;;;5051044;28;20232;-58
2022/11/24 07:47:48;;;;;;;8.60;1.70;;;8.30;99.90;;;;;;5050215;28;20217;-54
2022/11/24 07:50:15;;;;;;;13.00;1.97;;;8.30;99.90;;;;;;5042540;28;20256;-58
2022/11/24 07:52:43;;;;;;;7.80;2.00;;;8.30;99.90;;;;;;5048598;28;20209;-58
2022/11/24 07:55:10;;;;;;;7.53;1.67;;;8.30;96.60;;;;;;5050442;28;20272;-59
2022/11/24 07:57:37;;;;;;;5.80;1.73;;;8.30;96.90;;;;;;5052971;28;20214;-60
2022/11/24 08:00:05;;;;;;;9.13;1.77;;;8.30;94.10;;;;;;5053732;28;20256;-58
2022/11/24 08:02:32;;;;;;;4.77;1.40;;;8.40;84.20;;;;;;5054436;28;20213;-57
2022/11/24 08:04:58;;;;;;;5.93;1.90;;;8.40;85.20;;;;;;5053811;28;20312;-59
2022/11/24 08:07:25;;;;;;;4.43;1.50;;;8.40;82.10;;;;;;5053301;28;20205;-60
2022/11/24 08:09:53;;;;;;;5.20;1.17;;;8.30;78.90;;;;;;5053828;28;20206;-58
2022/11/24 08:12:21;;;;;;;5.57;1.50;;;8.30;83.90;;;;;;5054052;28;20209;-58
2022/11/24 08:14:49;;;;;;;5.27;1.27;;;8.30;62.50;;;;;;5053698;28;20319;-58
2022/11/24 08:17:15;;;;;;;5.57;1.63;;;8.30;76.70;;;;;;5053807;28;20305;-59
2022/11/24 08:19:42;;;;;;;8.50;1.80;;;8.30;72.40;;;;;;5053534;28;20279;-59
2022/11/24 08:22:09;;;;;;;4.43;1.20;;;8.30;60.60;;;;;;5053645;28;20209;-60
2022/11/24 08:24:36;;;;;;;4.50;1.20;;;8.30;73.80;;;;;;5050728;28;20217;-58
2022/11/24 08:27:04;;;;;;;6.07;1.27;;;8.30;76.10;;;;;;5053446;28;20244;-59
2022/11/24 08:29:31;;;;;;;2.20;0.80;;;8.30;85.20;;;;;;5053944;28;20210;-57
2022/11/24 08:31:58;;;;;;;7.63;1.80;;;8.30;95.60;;;;;;5053115;28;20223;-58
2022/11/24 08:34:25;;;;;;;7.03;1.17;;;8.30;92.80;;;;;;5053672;28;20237;-58
2022/11/24 08:36:52;;;;;;;5.47;1.50;;;8.30;96.00;;;;;;5052258;28;20221;-58
2022/11/24 08:39:19;;;;;;;3.80;1.30;;;8.40;90.00;;;;;;5053653;28;20218;-57
2022/11/24 08:41:46;;;;;;;7.80;1.50;;;8.40;89.40;;;;;;5053459;28;20247;-60
2022/11/24 08:44:17;;;;;;;5.97;1.27;;;8.40;83.80;;;;;;5053028;28;20224;-62
2022/11/24 08:46:43;;;;;;;2.93;1.33;;;8.50;92.50;;;;;;5053056;28;20249;-63
2022/11/24 08:49:10;;;;;;;4.43;1.00;;;8.50;61.10;;;;;;5053078;28;20207;-58
2022/11/24 08:51:37;;;;;;;6.47;1.47;;;8.50;74.70;;;;;;5053129;28;20621;-60
2022/11/24 08:54:04;;;;;;;7.13;1.50;;;8.60;52.30;;;;;;5052832;28;20660;-53
2022/11/24 08:56:32;;;;;;;7.00;1.23;;;8.50;60.80;;;;;;5052945;28;20206;-58
2022/11/24 08:58:59;;;;;;;3.30;1.37;;;8.50;62.90;;;;;;5053016;28;20204;-60
2022/11/24 09:01:28;;;;;;;5.53;1.50;;;8.50;66.70;;;;;;5052589;28;20272;-61
2022/11/24 09:03:55;;;;;;;4.40;1.43;;;8.40;94.40;;;;;;5053314;28;20236;-60
2022/11/24 09:06:24;;;;;;;3.53;1.40;;;8.40;99.90;;;;;;5052238;28;20212;-59
2022/11/24 09:08:51;;;;;;;4.07;0.90;;;8.40;99.90;;;;;;5052864;28;20205;-61
2022/11/24 09:11:18;;;;;;;8.63;1.40;;;8.30;99.90;;;;;;5052429;28;20237;-60
2022/11/24 09:13:45;;;;;;;5.17;1.27;;;8.20;99.90;;;;;;5052459;28;20250;-60
2022/11/24 09:16:14;;;;;;;6.63;1.27;;;8.10;99.90;;;;;;5052047;28;20893;-60
2022/11/24 09:18:42;;;;;;;7.57;1.20;;;8.10;99.90;;;;;;5053056;28;20230;-59
2022/11/24 09:21:10;;;;;;;4.80;1.47;;;8.10;99.90;;;;;;5052635;28;20205;-56
2022/11/24 09:23:37;;;;;;;9.23;1.50;;;8.10;99.90;;;;;;5052387;28;20584;-60
2022/11/24 09:26:05;;;;;;;7.20;1.67;;;8.10;99.90;;;;;;5052396;28;20664;-60
2022/11/24 09:28:32;;;;;;;7.03;1.47;;;8.20;99.90;;;;;;5052143;28;20608;-60
2022/11/24 09:31:00;;;;;;;4.90;1.80;;;8.20;99.90;;;;;;5032567;28;20225;-63
2022/11/24 09:33:27;;;;;;;6.10;1.47;;;8.20;99.90;;;;;;5032402;28;20269;-62
2022/11/24 09:35:55;;;;;;;5.17;1.60;;;8.30;99.90;;;;;;5032660;28;20565;-60
2022/11/24 09:38:22;;;;;;;4.30;1.80;;;8.30;99.90;;;;;;5031783;28;20634;-60
2022/11/24 09:40:49;;;;;;;7.43;1.83;;;8.40;99.90;;;;;;5032333;28;20299;-58
2022/11/24 09:43:24;;;;;;;3.57;1.83;;;8.40;99.90;;;;;;5031868;28;20240;-59
2022/11/24 09:45:59;;;;;;;10.03;1.93;;;8.50;99.90;;;;;;5050355;28;20206;-59
2022/11/24 09:48:30;;;;;;;7.80;2.07;;;8.60;99.90;;;;;;5052333;28;20204;-61
2022/11/24 09:51:02;;;;;;;8.23;2.30;;;8.70;99.90;;;;;;5051471;28;20201;-59
2022/11/24 09:53:34;;;;;;;6.17;1.90;;;8.70;99.90;;;;;;5051921;28;20207;-60
2022/11/24 09:56:05;;;;;;;9.97;2.10;;;8.70;99.90;;;;;;5051366;28;20659;-62
2022/11/24 09:58:40;;;;;;;13.50;4.80;;;8.80;99.90;;;;;;5051962;28;20226;-61
2022/11/24 10:01:12;;;;;;;12.37;4.63;;;8.80;99.90;;;;;;5051427;28;20217;-61
2022/11/24 10:03:42;;;;;;;7.00;2.50;;;8.80;99.90;;;;;;5051657;28;20228;-61
2022/11/24 10:06:21;;;;;;;5.73;2.07;;;8.80;99.90;;;;;;5051300;28;20235;-60
2022/11/24 10:09:04;;;;;;;9.30;2.00;;;8.80;99.90;;;;;;5052076;28;20207;-59
2022/11/24 10:11:37;;;;;;;6.37;2.50;;;8.80;99.90;;;;;;5049606;28;20270;-60
2022/11/24 10:14:20;;;;;;;9.30;2.03;;;8.80;99.90;;;;;;5044227;28;20243;-60
2022/11/24 10:16:53;;;;;;;9.70;2.17;;;8.90;99.90;;;;;;5051390;28;20214;-57
2022/11/24 10:19:34;;;;;;;6.93;2.30;;;8.90;99.90;;;;;;5050794;28;20667;-59
2022/11/24 10:22:19;;;;;;;7.50;2.20;;;8.90;99.90;;;;;;5051581;28;20208;-59
2022/11/24 10:25:06;;;;;;;12.10;1.90;;;8.90;99.90;;;;;;5051169;28;20282;-58
2022/11/24 10:27:37;;;;;;;11.53;2.40;;;8.80;99.90;;;;;;5051477;28;20201;-58
2022/11/24 10:30:13;;;;;;;7.60;1.97;;;8.80;99.90;;;;;;5031292;28;20215;-59
2022/11/24 10:32:43;;;;;;;9.03;2.90;;;8.80;99.90;;;;;;5032003;28;20235;-60
2022/11/24 10:35:16;;;;;;;12.37;2.53;;;8.80;99.90;;;;;;5031056;28;20242;-59
2022/11/24 10:37:52;;;;;;;11.77;3.17;;;8.80;99.90;;;;;;5031328;28;20235;-59
2022/11/24 10:40:28;;;;;;;10.07;2.37;;;8.90;99.90;;;;;;5030918;28;20205;-60
2022/11/24 10:42:55;;;;;;;14.83;6.40;;;9.00;99.90;;;;;;5045968;28;20210;-59
2022/11/24 10:45:22;;;;;;;8.23;2.87;;;9.00;99.90;;;;;;5050689;28;20239;-54
2022/11/24 10:47:49;;;;;;;10.00;3.00;;;9.10;99.90;;;;;;5051192;28;20203;-59
2022/11/24 10:50:21;;;;;;;8.40;2.10;;;9.10;99.90;;;;;;5051394;28;20203;-60
2022/11/24 10:52:57;;;;;;;11.10;2.10;;;9.30;99.90;;;;;;5051923;28;20211;-60
2022/11/24 10:55:24;;;;;;;8.70;1.97;;;9.40;99.90;;;;;;5051287;28;20231;-61
2022/11/24 10:57:51;;;;;;;7.40;2.40;;;9.50;99.90;;;;;;5050279;28;20223;-56
2022/11/24 11:00:33;;;;;;;10.13;2.30;;;9.60;99.90;;;;;;5051013;28;20215;-60
2022/11/24 11:03:17;;;;;;;12.90;2.20;;;9.70;89.00;;;;;;5050946;28;20213;-60
2022/11/24 11:05:47;;;;;;;9.30;2.60;;;9.80;49.00;;;;;;5051900;28;20227;-61
2022/11/24 11:08:24;;;;;;;9.57;2.60;;;9.90;55.10;;;;;;5050902;28;20209;-59
2022/11/24 11:11:07;;;;;;;6.90;2.40;;;9.90;38.30;;;;;;5051440;28;20220;-56
2022/11/24 11:13:33;;;;;;;9.90;2.90;;;9.90;22.10;;;;;;5050352;28;20249;-58
2022/11/24 11:16:00;;;;;;;14.73;5.47;;;10.00;36.90;;;;;;5050658;28;20206;-56
2022/11/24 11:18:31;;;;;;;11.63;2.20;;;10.10;13.80;;;;;;5050447;28;20228;-58
2022/11/24 11:21:00;;;;;;;11.20;2.60;;;10.20;9.30;;;;;;5050621;28;20263;-59
2022/11/24 11:23:32;;;;;;;10.17;3.10;;;10.10;1.00;;;;;;5050795;28;20296;-58
2022/11/24 11:26:18;;;;;;;13.90;2.43;;;10.00;8.90;;;;;;5050778;28;20571;-59
2022/11/24 11:28:58;;;;;;;8.37;2.00;;;10.10;29.90;;;;;;5051192;28;20204;-56
2022/11/24 11:31:25;;;;;;;8.93;2.60;;;10.20;20.50;;;;;;5052934;28;20538;-58
2022/11/24 11:34:12;;;;;;;9.33;2.57;;;10.20;1.00;;;;;;5053742;28;21007;-58
2022/11/24 11:36:41;;;;;;;9.52;2.42;;;10.20;1.00;;;;;;5053122;28;20416;-51
2022/11/24 11:39:22;;;;;;;12.47;2.67;;;10.20;1.00;;;;;;5053480;28;20469;-60
2022/11/24 11:41:51;;;;;;;9.85;2.55;;;10.40;1.00;;;;;;5052542;28;20488;-58
2022/11/24 11:44:29;;;;;;;9.57;2.47;;;10.50;1.00;;;;;;5052411;28;20526;-58
2022/11/24 11:46:58;;;;;;;11.00;2.80;;;10.60;1.00;;;;;;5052651;28;20473;-54
2022/11/24 11:49:25;;;;;;;9.77;3.10;;;10.70;1.00;;;;;;5053337;28;20476;-56
2022/11/24 11:52:08;;;;;;;8.55;2.67;;;10.90;1.00;;;;;;5052233;28;20417;-57
2022/11/24 11:54:57;;;;;;;9.25;2.58;;;10.80;1.00;;;;;;5053265;28;20977;-59
2022/11/24 11:57:33;;;;;;;10.02;2.67;;;10.80;1.00;;;;;;5052460;28;20461;-59
2022/11/24 12:00:09;;;;;;;11.50;2.50;;;10.90;1.00;;;;;;5033197;28;20448;-60
2022/11/24 12:02:56;;;;;;;11.43;2.55;;;10.90;1.00;;;;;;5032881;28;20480;-57
2022/11/24 12:05:31;;;;;;;9.98;2.40;;;10.80;1.00;;;;;;5033251;28;20501;-59
2022/11/24 12:08:19;;;;;;;9.20;2.65;;;10.80;1.00;;;;;;5032877;28;21014;-58
2022/11/24 12:10:56;;;;;;;11.05;2.85;;;10.70;1.00;;;;;;5032711;28;20970;-54
2022/11/24 12:13:52;;;;;;;9.80;2.50;;;10.60;1.00;;;;;;5033011;28;20468;-57
2022/11/24 12:16:32;;;;;;;11.75;2.80;;;10.40;1.00;;;;;;5032822;28;20464;-59
2022/11/24 12:19:15;;;;;;;10.80;3.20;;;10.40;1.00;;;;;;5032763;28;20427;-55
2022/11/24 12:21:52;;;;;;;11.43;2.90;;;10.50;1.00;;;;;;5032364;28;20430;-55
2022/11/24 12:24:27;;;;;;;14.77;2.97;;;10.50;1.00;;;;;;5033020;28;20418;-56
2022/11/24 12:27:00;;;;;;;15.35;3.47;;;10.40;1.00;;;;;;5043129;28;20421;-58
2022/11/24 12:29:48;;;;;;;11.13;2.70;;;10.40;1.00;;;;;;5052478;28;20495;-56
2022/11/24 12:32:29;;;;;;;14.35;3.05;;;10.40;1.00;;;;;;5052303;28;20491;-54
2022/11/24 12:35:03;;;;;;;11.88;3.00;;;10.50;1.00;;;;;;5043303;28;20960;-57
2022/11/24 12:37:47;;;;;;;11.07;3.05;;;10.70;1.00;;;;;;5051303;28;20425;-55
2022/11/24 12:40:23;;;;;;;16.25;3.85;;;10.80;1.00;;;;;;5052151;28;20779;-55
2022/11/24 12:43:04;;;;;;;15.07;3.50;;;10.90;1.00;;;;;;5051318;28;20421;-58
2022/11/24 12:45:37;;;;;;;14.18;2.95;;;11.00;1.00;;;;;;5052055;28;20424;-55
2022/11/24 12:48:18;;;;;;;12.85;3.08;;;11.00;1.00;;;;;;5051477;28;20899;-56
2022/11/24 12:50:46;;;;;;;12.45;2.70;;;11.00;1.00;;;;;;5051873;28;20413;-59
2022/11/24 12:53:16;;;;;;;11.95;3.13;;;10.90;1.00;;;;;;5051931;28;20463;-57
2022/11/24 12:55:44;;;;;;;13.43;2.70;;;10.80;1.00;;;;;;5052214;28;20413;-56
2022/11/24 12:58:20;;;;;;;13.43;2.70;;;10.90;1.00;;;;;;5051495;28;20429;-56
2022/11/24 13:00:58;;;;;;;15.82;3.03;;;10.80;1.00;;;;;;5052036;28;20417;-56
2022/11/24 13:03:35;;;;;;;11.93;2.80;;;10.80;1.00;;;;;;5052009;28;20417;-57
2022/11/24 13:06:09;;;;;;;18.23;3.35;;;10.70;1.00;;;;;;5051479;28;20892;-55